Virtual LH

Virtual LH. There's no better way to fly
Since 2013.



AIRPORT MAP

METAR AND TAF INFORMATION

METAR FOR LDPL
ADDS - METARS form results

(1305 UTC 15 September 2019)
Data provider http://aviationweather.gov/metar/data/
 
METAR text: LDPL 151300Z 27007KT 230V310 CAVOK 26/17 Q1023 NOSIG
Conditions at: LDPL (PULA , HR) observed 1300 UTC 15 September 2019
Temperature: 26.0°C (79°F)
Dewpoint: 17.0°C (63°F) [RH = 58%]
Pressure (altimeter): 30.21 inches Hg (1023.0 mb)
Winds: from the W (270 degrees) at 8 MPH (7 knots; 3.6 m/s)
Visibility: 6 or more miles (10+ km)
Ceiling: ceiling and visibility are OK
Clouds: unknown
Weather: no significant weather observed at this time

METAR text: LDPL 151230Z 27009KT CAVOK 26/17 Q1023 NOSIG
Conditions at: LDPL (PULA , HR) observed 1230 UTC 15 September 2019
Temperature: 26.0°C (79°F)
Dewpoint: 17.0°C (63°F) [RH = 58%]
Pressure (altimeter): 30.21 inches Hg (1023.0 mb)
Winds: from the W (270 degrees) at 10 MPH (9 knots; 4.6 m/s)
Visibility: 6 or more miles (10+ km)
Ceiling: ceiling and visibility are OK
Clouds: unknown
Weather: no significant weather observed at this time

Forecast for: LDPL (PULA , HR)
Text: TAF LDPL 151125Z 1512/1612 27008KT CAVOK TX28/1512Z TN19/1604Z
Forecast period: 1200 to 1700 UTC 15 September 2019
Forecast type: FROM: standard forecast or significant change
Winds: from the W (270 degrees) at 9 MPH (8 knots; 4.1 m/s)
Visibility: 6 or more miles 10+ km)
Ceiling: unknown
Clouds: missing
Weather: no significant weather forecast for this period
Text: BECMG 1517/1519 VRB02KT
Forecast period: 1700 UTC 15 September 2019 to 1000 UTC 16 September 2019
Forecast type: BECOMING: Conditions expected to become as follows by 1900 UTC 15 September 2019
Winds: variable direction winds at 2 MPH (2 knots; 1.0 m/s)
Visibility: 6 or more miles 10+ km)
Ceiling: unknown
Clouds: missing
Weather: no significant weather forecast for this period
Text: BECMG 1610/1612 27008KT
Forecast period: 1000 to 1200 UTC 16 September 2019
Forecast type: BECOMING: Conditions expected to become as follows by 1200 UTC 16 September 2019
Winds: from the W (270 degrees) at 9 MPH (8 knots; 4.1 m/s)
Visibility: 6 or more miles 10+ km)
Ceiling: unknown
Clouds: missing
Weather: no significant weather forecast for this period

RUNWAY INFORMATION

Runway 09 Runway length 9678 ft Runway width 148 ft
Runway elevation 169 ft Runway displaced threshold 0 ft Runway heading 88
Runway 27 Runway length 9678 ft Runway width 148 ft
Runway elevation 274 ft Runway displaced threshold 0 ft Runway heading 268

AIRPORT FREQUENCIES

Type APP Name APP Frequency 118.4 MHZ
Type TWR Name TWR Frequency 120 MHZ

AIRPORT NEAR NAVIGATION AIDS

Type NDB Name Cres Frequency 433 KHZ
Type NDB Name Kavran Frequency 265 KHZ
Type NDB Name Pula Frequency 352 KHZ
Type VOR-DME Name Pula Frequency 111250 KHZ